sensor_id;sensor_type;location;lat;lon;timestamp;P1;durP1;ratioP1;P2;durP2;ratioP2
73693;SDS011;61997;53.974;11.670;2023-03-04T00:01:13;3.10;;;1.65;;
73693;SDS011;61997;53.974;11.670;2023-03-04T00:03:38;5.20;;;1.67;;
73693;SDS011;61997;53.974;11.670;2023-03-04T00:06:04;5.03;;;1.63;;
73693;SDS011;61997;53.974;11.670;2023-03-04T00:08:30;3.38;;;1.80;;
73693;SDS011;61997;53.974;11.670;2023-03-04T00:10:56;4.82;;;1.42;;
73693;SDS011;61997;53.974;11.670;2023-03-04T00:13:21;6.32;;;1.80;;
73693;SDS011;61997;53.974;11.670;2023-03-04T00:15:48;4.35;;;1.77;;
73693;SDS011;61997;53.974;11.670;2023-03-04T00:18:14;3.50;;;1.25;;
73693;SDS011;61997;53.974;11.670;2023-03-04T00:20:40;3.88;;;1.30;;
73693;SDS011;61997;53.974;11.670;2023-03-04T00:23:06;4.60;;;1.73;;
73693;SDS011;61997;53.974;11.670;2023-03-04T00:25:32;4.95;;;1.40;;
73693;SDS011;61997;53.974;11.670;2023-03-04T00:27:58;6.45;;;1.55;;
73693;SDS011;61997;53.974;11.670;2023-03-04T00:30:24;3.63;;;1.50;;
73693;SDS011;61997;53.974;11.670;2023-03-04T00:32:51;7.15;;;1.63;;
73693;SDS011;61997;53.974;11.670;2023-03-04T00:35:16;3.90;;;2.20;;
73693;SDS011;61997;53.974;11.670;2023-03-04T00:37:42;4.00;;;1.65;;
73693;SDS011;61997;53.974;11.670;2023-03-04T00:40:07;3.05;;;1.73;;
73693;SDS011;61997;53.974;11.670;2023-03-04T00:42:33;2.83;;;1.10;;
73693;SDS011;61997;53.974;11.670;2023-03-04T00:44:59;4.10;;;1.27;;
73693;SDS011;61997;53.974;11.670;2023-03-04T00:47:24;3.45;;;1.73;;
73693;SDS011;61997;53.974;11.670;2023-03-04T00:49:50;2.30;;;1.27;;
73693;SDS011;61997;53.974;11.670;2023-03-04T00:52:15;3.10;;;1.75;;
73693;SDS011;61997;53.974;11.670;2023-03-04T00:54:41;3.75;;;1.42;;
73693;SDS011;61997;53.974;11.670;2023-03-04T00:57:06;4.65;;;1.65;;
73693;SDS011;61997;53.974;11.670;2023-03-04T00:59:32;3.63;;;1.75;;
73693;SDS011;61997;53.974;11.670;2023-03-04T01:01:58;3.83;;;1.48;;
73693;SDS011;61997;53.974;11.670;2023-03-04T01:04:25;4.88;;;2.67;;
73693;SDS011;61997;53.974;11.670;2023-03-04T01:06:50;4.03;;;2.20;;
73693;SDS011;61997;53.974;11.670;2023-03-04T01:09:16;5.22;;;1.38;;
73693;SDS011;61997;53.974;11.670;2023-03-04T01:11:41;5.38;;;2.30;;
73693;SDS011;61997;53.974;11.670;2023-03-04T01:14:07;4.40;;;1.85;;
73693;SDS011;61997;53.974;11.670;2023-03-04T01:16:32;3.78;;;1.77;;
73693;SDS011;61997;53.974;11.670;2023-03-04T01:18:58;2.95;;;1.63;;
73693;SDS011;61997;53.974;11.670;2023-03-04T01:21:23;2.40;;;1.40;;
73693;SDS011;61997;53.974;11.670;2023-03-04T01:23:49;3.85;;;1.67;;
73693;SDS011;61997;53.974;11.670;2023-03-04T01:26:14;3.78;;;1.45;;
73693;SDS011;61997;53.974;11.670;2023-03-04T01:28:40;5.15;;;1.90;;
73693;SDS011;61997;53.974;11.670;2023-03-04T01:31:08;5.28;;;1.75;;
73693;SDS011;61997;53.974;11.670;2023-03-04T01:33:34;4.32;;;1.40;;
73693;SDS011;61997;53.974;11.670;2023-03-04T01:36:00;5.13;;;2.20;;
73693;SDS011;61997;53.974;11.670;2023-03-04T01:38:26;3.72;;;2.10;;
73693;SDS011;61997;53.974;11.670;2023-03-04T01:40:51;7.30;;;2.15;;
73693;SDS011;61997;53.974;11.670;2023-03-04T01:43:20;4.85;;;2.28;;
73693;SDS011;61997;53.974;11.670;2023-03-04T01:45:47;4.38;;;1.55;;
73693;SDS011;61997;53.974;11.670;2023-03-04T01:48:16;3.53;;;1.67;;
73693;SDS011;61997;53.974;11.670;2023-03-04T01:50:44;4.93;;;2.00;;
73693;SDS011;61997;53.974;11.670;2023-03-04T01:53:14;2.85;;;1.40;;
73693;SDS011;61997;53.974;11.670;2023-03-04T01:55:42;4.03;;;1.75;;
73693;SDS011;61997;53.974;11.670;2023-03-04T01:58:08;2.78;;;1.73;;
73693;SDS011;61997;53.974;11.670;2023-03-04T02:00:35;5.40;;;2.30;;
73693;SDS011;61997;53.974;11.670;2023-03-04T02:03:08;4.60;;;1.70;;
73693;SDS011;61997;53.974;11.670;2023-03-04T02:05:38;5.30;;;2.20;;
73693;SDS011;61997;53.974;11.670;2023-03-04T02:08:06;5.45;;;2.53;;
73693;SDS011;61997;53.974;11.670;2023-03-04T02:10:33;6.50;;;2.60;;
73693;SDS011;61997;53.974;11.670;2023-03-04T02:12:59;5.60;;;1.92;;
73693;SDS011;61997;53.974;11.670;2023-03-04T02:15:26;7.57;;;2.22;;
73693;SDS011;61997;53.974;11.670;2023-03-04T02:17:51;4.25;;;1.92;;
73693;SDS011;61997;53.974;11.670;2023-03-04T02:20:20;4.10;;;1.98;;
73693;SDS011;61997;53.974;11.670;2023-03-04T02:28:41;4.97;;;2.25;;
73693;SDS011;61997;53.974;11.670;2023-03-04T02:31:29;4.22;;;1.73;;
73693;SDS011;61997;53.974;11.670;2023-03-04T02:34:05;3.97;;;1.75;;
73693;SDS011;61997;53.974;11.670;2023-03-04T02:36:52;4.53;;;2.08;;
73693;SDS011;61997;53.974;11.670;2023-03-04T02:39:22;4.72;;;2.05;;
73693;SDS011;61997;53.974;11.670;2023-03-04T02:41:55;6.38;;;1.90;;
73693;SDS011;61997;53.974;11.670;2023-03-04T02:44:22;5.13;;;1.67;;
73693;SDS011;61997;53.974;11.670;2023-03-04T02:46:55;7.80;;;2.00;;
73693;SDS011;61997;53.974;11.670;2023-03-04T02:49:21;6.57;;;1.98;;
73693;SDS011;61997;53.974;11.670;2023-03-04T02:51:51;6.97;;;2.22;;
73693;SDS011;61997;53.974;11.670;2023-03-04T02:54:19;5.47;;;2.42;;
73693;SDS011;61997;53.974;11.670;2023-03-04T02:56:47;4.57;;;1.75;;
73693;SDS011;61997;53.974;11.670;2023-03-04T02:59:14;3.60;;;1.63;;
73693;SDS011;61997;53.974;11.670;2023-03-04T03:01:40;4.68;;;1.95;;
73693;SDS011;61997;53.974;11.670;2023-03-04T03:04:06;7.72;;;2.13;;
73693;SDS011;61997;53.974;11.670;2023-03-04T03:06:32;5.75;;;1.92;;
73693;SDS011;61997;53.974;11.670;2023-03-04T03:08:57;6.45;;;2.38;;
73693;SDS011;61997;53.974;11.670;2023-03-04T03:11:22;4.15;;;1.80;;
73693;SDS011;61997;53.974;11.670;2023-03-04T03:13:48;5.22;;;1.80;;
73693;SDS011;61997;53.974;11.670;2023-03-04T03:16:13;6.40;;;1.90;;
73693;SDS011;61997;53.974;11.670;2023-03-04T03:18:39;4.53;;;2.08;;
73693;SDS011;61997;53.974;11.670;2023-03-04T03:21:05;6.32;;;1.85;;
73693;SDS011;61997;53.974;11.670;2023-03-04T03:23:33;4.30;;;2.20;;
73693;SDS011;61997;53.974;11.670;2023-03-04T03:25:59;4.82;;;1.77;;
73693;SDS011;61997;53.974;11.670;2023-03-04T03:28:25;7.13;;;1.80;;
73693;SDS011;61997;53.974;11.670;2023-03-04T03:30:50;4.95;;;1.85;;
73693;SDS011;61997;53.974;11.670;2023-03-04T03:33:16;5.82;;;2.38;;
73693;SDS011;61997;53.974;11.670;2023-03-04T03:35:41;5.20;;;1.95;;
73693;SDS011;61997;53.974;11.670;2023-03-04T03:38:07;4.25;;;1.90;;
73693;SDS011;61997;53.974;11.670;2023-03-04T03:40:33;4.72;;;2.25;;
73693;SDS011;61997;53.974;11.670;2023-03-04T03:42:59;5.22;;;1.75;;
73693;SDS011;61997;53.974;11.670;2023-03-04T03:45:25;5.50;;;1.80;;
73693;SDS011;61997;53.974;11.670;2023-03-04T03:47:50;4.57;;;1.90;;
73693;SDS011;61997;53.974;11.670;2023-03-04T03:50:16;4.90;;;2.03;;
73693;SDS011;61997;53.974;11.670;2023-03-04T03:52:41;4.15;;;1.80;;
73693;SDS011;61997;53.974;11.670;2023-03-04T03:55:08;5.28;;;1.95;;
73693;SDS011;61997;53.974;11.670;2023-03-04T03:57:34;4.57;;;1.92;;
73693;SDS011;61997;53.974;11.670;2023-03-04T03:59:59;5.53;;;1.60;;
73693;SDS011;61997;53.974;11.670;2023-03-04T04:02:24;5.80;;;2.00;;
73693;SDS011;61997;53.974;11.670;2023-03-04T04:04:50;4.75;;;1.52;;
73693;SDS011;61997;53.974;11.670;2023-03-04T04:07:16;5.25;;;1.95;;
73693;SDS011;61997;53.974;11.670;2023-03-04T04:09:42;3.85;;;1.33;;
73693;SDS011;61997;53.974;11.670;2023-03-04T04:12:07;5.95;;;2.25;;
73693;SDS011;61997;53.974;11.670;2023-03-04T04:14:33;3.45;;;1.65;;
73693;SDS011;61997;53.974;11.670;2023-03-04T04:16:58;4.97;;;1.95;;
73693;SDS011;61997;53.974;11.670;2023-03-04T04:19:24;3.67;;;1.50;;
73693;SDS011;61997;53.974;11.670;2023-03-04T04:21:50;2.35;;;1.20;;
73693;SDS011;61997;53.974;11.670;2023-03-04T04:24:15;3.90;;;1.55;;
73693;SDS011;61997;53.974;11.670;2023-03-04T04:26:41;3.72;;;1.55;;
73693;SDS011;61997;53.974;11.670;2023-03-04T04:29:07;5.40;;;1.55;;
73693;SDS011;61997;53.974;11.670;2023-03-04T04:31:35;4.60;;;1.67;;
73693;SDS011;61997;53.974;11.670;2023-03-04T04:34:01;3.35;;;1.60;;
73693;SDS011;61997;53.974;11.670;2023-03-04T04:36:26;3.95;;;1.77;;
73693;SDS011;61997;53.974;11.670;2023-03-04T04:38:52;2.13;;;1.30;;
73693;SDS011;61997;53.974;11.670;2023-03-04T04:41:22;3.00;;;1.60;;
73693;SDS011;61997;53.974;11.670;2023-03-04T04:43:51;3.03;;;1.33;;
73693;SDS011;61997;53.974;11.670;2023-03-04T04:46:17;3.83;;;1.40;;
73693;SDS011;61997;53.974;11.670;2023-03-04T04:48:43;3.67;;;1.60;;
73693;SDS011;61997;53.974;11.670;2023-03-04T04:51:09;4.72;;;1.52;;
73693;SDS011;61997;53.974;11.670;2023-03-04T04:53:34;3.20;;;1.58;;
73693;SDS011;61997;53.974;11.670;2023-03-04T04:56:06;2.85;;;1.30;;
73693;SDS011;61997;53.974;11.670;2023-03-04T04:58:33;3.13;;;1.25;;
73693;SDS011;61997;53.974;11.670;2023-03-04T05:00:58;5.60;;;2.38;;
73693;SDS011;61997;53.974;11.670;2023-03-04T05:03:24;4.32;;;1.60;;
73693;SDS011;61997;53.974;11.670;2023-03-04T05:05:50;3.65;;;1.45;;
73693;SDS011;61997;53.974;11.670;2023-03-04T05:08:16;2.67;;;1.40;;
73693;SDS011;61997;53.974;11.670;2023-03-04T05:10:41;5.40;;;1.80;;
73693;SDS011;61997;53.974;11.670;2023-03-04T05:13:07;3.33;;;2.00;;
73693;SDS011;61997;53.974;11.670;2023-03-04T05:15:32;3.28;;;1.38;;
73693;SDS011;61997;53.974;11.670;2023-03-04T05:17:59;3.30;;;1.40;;
73693;SDS011;61997;53.974;11.670;2023-03-04T05:20:24;2.45;;;1.30;;
73693;SDS011;61997;53.974;11.670;2023-03-04T05:22:51;5.20;;;1.50;;
73693;SDS011;61997;53.974;11.670;2023-03-04T05:25:16;4.72;;;1.17;;
73693;SDS011;61997;53.974;11.670;2023-03-04T05:27:41;3.38;;;1.40;;
73693;SDS011;61997;53.974;11.670;2023-03-04T05:30:07;3.35;;;1.20;;
73693;SDS011;61997;53.974;11.670;2023-03-04T05:32:33;3.88;;;1.75;;
73693;SDS011;61997;53.974;11.670;2023-03-04T05:34:58;4.25;;;1.48;;
73693;SDS011;61997;53.974;11.670;2023-03-04T05:37:24;4.47;;;1.13;;
73693;SDS011;61997;53.974;11.670;2023-03-04T05:39:49;2.90;;;1.40;;
73693;SDS011;61997;53.974;11.670;2023-03-04T05:42:14;2.72;;;1.65;;
73693;SDS011;61997;53.974;11.670;2023-03-04T05:44:40;2.72;;;1.00;;
73693;SDS011;61997;53.974;11.670;2023-03-04T05:47:05;2.85;;;1.40;;
73693;SDS011;61997;53.974;11.670;2023-03-04T05:49:31;3.72;;;1.45;;
73693;SDS011;61997;53.974;11.670;2023-03-04T05:51:56;5.55;;;1.30;;
73693;SDS011;61997;53.974;11.670;2023-03-04T05:54:21;4.13;;;1.35;;
73693;SDS011;61997;53.974;11.670;2023-03-04T05:56:47;2.78;;;0.90;;
73693;SDS011;61997;53.974;11.670;2023-03-04T05:59:12;3.20;;;1.30;;
73693;SDS011;61997;53.974;11.670;2023-03-04T06:01:38;2.65;;;1.30;;
73693;SDS011;61997;53.974;11.670;2023-03-04T06:04:03;3.78;;;1.40;;
73693;SDS011;61997;53.974;11.670;2023-03-04T06:06:28;2.65;;;1.15;;
73693;SDS011;61997;53.974;11.670;2023-03-04T06:08:54;3.08;;;1.20;;
73693;SDS011;61997;53.974;11.670;2023-03-04T06:11:19;3.10;;;1.30;;
73693;SDS011;61997;53.974;11.670;2023-03-04T06:13:45;4.50;;;1.05;;
73693;SDS011;61997;53.974;11.670;2023-03-04T06:16:10;2.65;;;0.98;;
73693;SDS011;61997;53.974;11.670;2023-03-04T06:18:35;3.38;;;0.85;;
73693;SDS011;61997;53.974;11.670;2023-03-04T06:21:01;3.53;;;1.40;;
73693;SDS011;61997;53.974;11.670;2023-03-04T06:23:27;5.30;;;1.65;;
73693;SDS011;61997;53.974;11.670;2023-03-04T06:25:53;3.60;;;1.45;;
73693;SDS011;61997;53.974;11.670;2023-03-04T06:28:20;2.78;;;1.13;;
73693;SDS011;61997;53.974;11.670;2023-03-04T06:30:45;3.85;;;1.30;;
73693;SDS011;61997;53.974;11.670;2023-03-04T06:33:12;2.85;;;1.10;;
73693;SDS011;61997;53.974;11.670;2023-03-04T06:35:37;2.58;;;1.38;;
73693;SDS011;61997;53.974;11.670;2023-03-04T06:38:02;2.72;;;1.00;;
73693;SDS011;61997;53.974;11.670;2023-03-04T06:40:28;4.35;;;1.10;;
73693;SDS011;61997;53.974;11.670;2023-03-04T06:42:53;3.00;;;1.13;;
73693;SDS011;61997;53.974;11.670;2023-03-04T06:45:19;3.45;;;1.10;;
73693;SDS011;61997;53.974;11.670;2023-03-04T06:47:44;4.13;;;0.98;;
73693;SDS011;61997;53.974;11.670;2023-03-04T06:50:10;2.83;;;1.05;;
73693;SDS011;61997;53.974;11.670;2023-03-04T06:52:37;3.63;;;1.13;;
73693;SDS011;61997;53.974;11.670;2023-03-04T06:55:03;4.63;;;1.23;;
73693;SDS011;61997;53.974;11.670;2023-03-04T06:57:29;3.10;;;0.98;;
73693;SDS011;61997;53.974;11.670;2023-03-04T06:59:54;3.45;;;1.33;;
73693;SDS011;61997;53.974;11.670;2023-03-04T07:02:20;3.45;;;1.30;;
73693;SDS011;61997;53.974;11.670;2023-03-04T07:04:47;4.85;;;1.35;;
73693;SDS011;61997;53.974;11.670;2023-03-04T07:07:12;4.68;;;1.25;;
73693;SDS011;61997;53.974;11.670;2023-03-04T07:09:38;4.03;;;1.65;;
73693;SDS011;61997;53.974;11.670;2023-03-04T07:12:04;4.03;;;1.35;;
73693;SDS011;61997;53.974;11.670;2023-03-04T07:14:30;7.55;;;1.95;;
73693;SDS011;61997;53.974;11.670;2023-03-04T07:16:55;4.25;;;1.30;;
73693;SDS011;61997;53.974;11.670;2023-03-04T07:19:21;4.47;;;1.40;;
73693;SDS011;61997;53.974;11.670;2023-03-04T07:21:49;4.72;;;1.20;;
73693;SDS011;61997;53.974;11.670;2023-03-04T07:24:15;3.33;;;1.38;;
73693;SDS011;61997;53.974;11.670;2023-03-04T07:26:40;4.10;;;1.50;;
73693;SDS011;61997;53.974;11.670;2023-03-04T07:29:06;5.75;;;1.33;;
73693;SDS011;61997;53.974;11.670;2023-03-04T07:31:32;4.50;;;1.48;;
73693;SDS011;61997;53.974;11.670;2023-03-04T07:34:02;3.95;;;1.13;;
73693;SDS011;61997;53.974;11.670;2023-03-04T07:36:29;4.35;;;1.67;;
73693;SDS011;61997;53.974;11.670;2023-03-04T07:38:55;5.35;;;1.52;;
73693;SDS011;61997;53.974;11.670;2023-03-04T07:41:21;4.18;;;1.23;;
73693;SDS011;61997;53.974;11.670;2023-03-04T07:43:48;4.88;;;1.30;;
73693;SDS011;61997;53.974;11.670;2023-03-04T07:46:14;2.17;;;1.30;;
73693;SDS011;61997;53.974;11.670;2023-03-04T07:48:39;3.85;;;1.02;;
73693;SDS011;61997;53.974;11.670;2023-03-04T07:51:08;3.65;;;1.73;;
73693;SDS011;61997;53.974;11.670;2023-03-04T07:53:35;2.83;;;1.20;;
73693;SDS011;61997;53.974;11.670;2023-03-04T07:56:01;6.03;;;1.38;;
73693;SDS011;61997;53.974;11.670;2023-03-04T07:58:27;3.75;;;1.40;;
73693;SDS011;61997;53.974;11.670;2023-03-04T08:00:52;3.78;;;1.20;;
73693;SDS011;61997;53.974;11.670;2023-03-04T08:03:17;3.88;;;1.40;;
73693;SDS011;61997;53.974;11.670;2023-03-04T08:05:43;3.85;;;1.02;;
73693;SDS011;61997;53.974;11.670;2023-03-04T08:08:08;2.40;;;1.30;;
73693;SDS011;61997;53.974;11.670;2023-03-04T08:10:34;3.67;;;1.27;;
73693;SDS011;61997;53.974;11.670;2023-03-04T08:13:00;3.92;;;1.42;;
73693;SDS011;61997;53.974;11.670;2023-03-04T08:15:26;5.70;;;1.65;;
73693;SDS011;61997;53.974;11.670;2023-03-04T08:17:52;3.47;;;1.15;;
73693;SDS011;61997;53.974;11.670;2023-03-04T08:20:17;2.80;;;0.90;;
73693;SDS011;61997;53.974;11.670;2023-03-04T08:22:43;6.07;;;2.22;;
73693;SDS011;61997;53.974;11.670;2023-03-04T08:25:08;2.58;;;1.20;;
73693;SDS011;61997;53.974;11.670;2023-03-04T08:27:33;6.40;;;1.42;;
73693;SDS011;61997;53.974;11.670;2023-03-04T08:30:01;3.42;;;0.85;;
73693;SDS011;61997;53.974;11.670;2023-03-04T08:32:26;4.43;;;1.60;;
73693;SDS011;61997;53.974;11.670;2023-03-04T08:34:52;2.83;;;1.02;;
73693;SDS011;61997;53.974;11.670;2023-03-04T08:37:19;4.13;;;1.20;;
73693;SDS011;61997;53.974;11.670;2023-03-04T08:39:44;3.80;;;1.33;;
73693;SDS011;61997;53.974;11.670;2023-03-04T08:42:09;2.38;;;1.08;;
73693;SDS011;61997;53.974;11.670;2023-03-04T08:44:35;4.15;;;1.30;;
73693;SDS011;61997;53.974;11.670;2023-03-04T08:47:00;2.33;;;0.88;;
73693;SDS011;61997;53.974;11.670;2023-03-04T08:49:26;3.22;;;1.25;;
73693;SDS011;61997;53.974;11.670;2023-03-04T08:51:51;4.05;;;1.55;;
73693;SDS011;61997;53.974;11.670;2023-03-04T08:54:17;6.35;;;1.55;;
73693;SDS011;61997;53.974;11.670;2023-03-04T08:56:42;4.40;;;1.50;;
73693;SDS011;61997;53.974;11.670;2023-03-04T08:59:07;3.70;;;1.08;;
73693;SDS011;61997;53.974;11.670;2023-03-04T09:01:33;5.80;;;1.65;;
73693;SDS011;61997;53.974;11.670;2023-03-04T09:03:58;4.15;;;1.17;;
73693;SDS011;61997;53.974;11.670;2023-03-04T09:06:24;4.63;;;1.42;;
73693;SDS011;61997;53.974;11.670;2023-03-04T09:08:49;2.85;;;1.20;;
73693;SDS011;61997;53.974;11.670;2023-03-04T09:11:14;3.83;;;1.30;;
73693;SDS011;61997;53.974;11.670;2023-03-04T09:13:40;3.92;;;1.05;;
73693;SDS011;61997;53.974;11.670;2023-03-04T09:16:12;2.88;;;1.05;;
73693;SDS011;61997;53.974;11.670;2023-03-04T09:18:39;4.85;;;1.15;;
73693;SDS011;61997;53.974;11.670;2023-03-04T09:21:05;3.67;;;1.20;;
73693;SDS011;61997;53.974;11.670;2023-03-04T09:23:32;2.25;;;1.23;;
73693;SDS011;61997;53.974;11.670;2023-03-04T09:25:58;4.55;;;1.25;;
73693;SDS011;61997;53.974;11.670;2023-03-04T09:28:23;4.75;;;1.42;;
73693;SDS011;61997;53.974;11.670;2023-03-04T09:30:48;2.72;;;1.63;;
73693;SDS011;61997;53.974;11.670;2023-03-04T09:33:14;4.78;;;1.08;;
73693;SDS011;61997;53.974;11.670;2023-03-04T09:35:39;5.53;;;1.20;;
73693;SDS011;61997;53.974;11.670;2023-03-04T09:38:05;5.18;;;1.63;;
73693;SDS011;61997;53.974;11.670;2023-03-04T09:40:39;2.08;;;1.00;;
73693;SDS011;61997;53.974;11.670;2023-03-04T09:43:09;3.13;;;1.05;;
73693;SDS011;61997;53.974;11.670;2023-03-04T09:45:49;3.55;;;1.00;;
73693;SDS011;61997;53.974;11.670;2023-03-04T09:48:20;4.57;;;1.35;;
73693;SDS011;61997;53.974;11.670;2023-03-04T09:50:50;5.75;;;1.25;;
73693;SDS011;61997;53.974;11.670;2023-03-04T09:53:27;6.68;;;1.33;;
73693;SDS011;61997;53.974;11.670;2023-03-04T09:56:03;5.43;;;1.38;;
73693;SDS011;61997;53.974;11.670;2023-03-04T10:01:23;6.13;;;1.40;;
73693;SDS011;61997;53.974;11.670;2023-03-04T10:06:22;4.35;;;1.13;;
73693;SDS011;61997;53.974;11.670;2023-03-04T10:08:53;4.05;;;1.25;;
73693;SDS011;61997;53.974;11.670;2023-03-04T10:14:30;5.15;;;1.30;;
73693;SDS011;61997;53.974;11.670;2023-03-04T10:17:02;4.78;;;1.35;;
73693;SDS011;61997;53.974;11.670;2023-03-04T10:21:59;3.05;;;1.35;;
73693;SDS011;61997;53.974;11.670;2023-03-04T10:24:28;6.28;;;1.58;;
73693;SDS011;61997;53.974;11.670;2023-03-04T10:27:01;5.10;;;1.42;;
73693;SDS011;61997;53.974;11.670;2023-03-04T10:29:30;2.55;;;1.00;;
73693;SDS011;61997;53.974;11.670;2023-03-04T10:31:57;4.35;;;1.30;;
73693;SDS011;61997;53.974;11.670;2023-03-04T10:34:22;4.35;;;1.55;;
73693;SDS011;61997;53.974;11.670;2023-03-04T10:37:21;5.63;;;1.00;;
73693;SDS011;61997;53.974;11.670;2023-03-04T10:39:41;3.58;;;1.05;;
73693;SDS011;61997;53.974;11.670;2023-03-04T10:45:00;3.25;;;0.90;;
73693;SDS011;61997;53.974;11.670;2023-03-04T10:47:26;5.82;;;1.35;;
73693;SDS011;61997;53.974;11.670;2023-03-04T10:49:54;4.68;;;1.13;;
73693;SDS011;61997;53.974;11.670;2023-03-04T10:52:31;4.43;;;1.27;;
73693;SDS011;61997;53.974;11.670;2023-03-04T10:55:04;3.25;;;1.48;;
73693;SDS011;61997;53.974;11.670;2023-03-04T10:57:35;5.45;;;1.10;;
73693;SDS011;61997;53.974;11.670;2023-03-04T11:02:43;2.72;;;1.00;;
73693;SDS011;61997;53.974;11.670;2023-03-04T11:05:20;5.95;;;2.03;;
73693;SDS011;61997;53.974;11.670;2023-03-04T11:07:51;4.35;;;0.85;;
73693;SDS011;61997;53.974;11.670;2023-03-04T11:10:19;5.13;;;1.08;;
73693;SDS011;61997;53.974;11.670;2023-03-04T11:15:21;5.38;;;1.20;;
73693;SDS011;61997;53.974;11.670;2023-03-04T11:18:05;5.55;;;1.10;;
73693;SDS011;61997;53.974;11.670;2023-03-04T11:20:44;4.32;;;1.20;;
73693;SDS011;61997;53.974;11.670;2023-03-04T11:23:21;5.03;;;1.23;;
73693;SDS011;61997;53.974;11.670;2023-03-04T11:26:20;2.70;;;1.05;;
73693;SDS011;61997;53.974;11.670;2023-03-04T11:31:20;5.63;;;1.50;;
73693;SDS011;61997;53.974;11.670;2023-03-04T11:37:11;5.72;;;1.20;;
73693;SDS011;61997;53.974;11.670;2023-03-04T11:39:58;4.97;;;1.23;;
73693;SDS011;61997;53.974;11.670;2023-03-04T11:43:11;2.95;;;1.33;;
73693;SDS011;61997;53.974;11.670;2023-03-04T11:45:27;4.95;;;1.40;;
73693;SDS011;61997;53.974;11.670;2023-03-04T11:50:30;4.55;;;1.50;;
73693;SDS011;61997;53.974;11.670;2023-03-04T11:53:49;6.18;;;1.55;;
73693;SDS011;61997;53.974;11.670;2023-03-04T11:56:12;5.03;;;1.30;;
73693;SDS011;61997;53.974;11.670;2023-03-04T12:10:32;6.65;;;1.90;;
73693;SDS011;61997;53.974;11.670;2023-03-04T12:18:33;4.60;;;1.52;;
73693;SDS011;61997;53.974;11.670;2023-03-04T12:28:50;5.32;;;1.60;;
73693;SDS011;61997;53.974;11.670;2023-03-04T12:36:44;3.23;;;1.70;;
73693;SDS011;61997;53.974;11.670;2023-03-04T12:39:32;6.53;;;1.77;;
73693;SDS011;61997;53.974;11.670;2023-03-04T12:42:10;6.32;;;1.95;;
73693;SDS011;61997;53.974;11.670;2023-03-04T12:55:37;6.00;;;1.85;;
73693;SDS011;61997;53.974;11.670;2023-03-04T12:58:05;4.50;;;1.63;;
73693;SDS011;61997;53.974;11.670;2023-03-04T13:00:46;8.20;;;2.15;;
73693;SDS011;61997;53.974;11.670;2023-03-04T13:06:08;7.07;;;2.00;;
73693;SDS011;61997;53.974;11.670;2023-03-04T13:14:05;6.45;;;2.00;;
73693;SDS011;61997;53.974;11.670;2023-03-04T13:22:28;4.97;;;1.80;;
73693;SDS011;61997;53.974;11.670;2023-03-04T13:27:45;7.53;;;1.98;;
73693;SDS011;61997;53.974;11.670;2023-03-04T13:43:46;8.60;;;3.80;;
73693;SDS011;61997;53.974;11.670;2023-03-04T13:56:36;13.07;;;4.10;;
73693;SDS011;61997;53.974;11.670;2023-03-04T13:59:20;9.75;;;4.43;;
73693;SDS011;61997;53.974;11.670;2023-03-04T14:01:56;12.07;;;4.28;;
73693;SDS011;61997;53.974;11.670;2023-03-04T14:04:35;9.90;;;4.53;;
73693;SDS011;61997;53.974;11.670;2023-03-04T14:07:19;10.10;;;4.35;;
73693;SDS011;61997;53.974;11.670;2023-03-04T14:09:53;10.90;;;4.03;;
73693;SDS011;61997;53.974;11.670;2023-03-04T14:12:26;12.77;;;4.43;;
73693;SDS011;61997;53.974;11.670;2023-03-04T14:14:57;12.02;;;4.53;;
73693;SDS011;61997;53.974;11.670;2023-03-04T14:17:34;7.72;;;3.47;;
73693;SDS011;61997;53.974;11.670;2023-03-04T14:20:01;10.85;;;4.00;;
73693;SDS011;61997;53.974;11.670;2023-03-04T14:22:30;6.85;;;4.03;;
73693;SDS011;61997;53.974;11.670;2023-03-04T14:25:02;11.40;;;4.45;;
73693;SDS011;61997;53.974;11.670;2023-03-04T14:27:31;7.97;;;3.92;;
73693;SDS011;61997;53.974;11.670;2023-03-04T14:30:00;10.90;;;4.50;;
73693;SDS011;61997;53.974;11.670;2023-03-04T14:32:27;9.50;;;3.90;;
73693;SDS011;61997;53.974;11.670;2023-03-04T14:34:55;8.30;;;4.28;;
73693;SDS011;61997;53.974;11.670;2023-03-04T14:37:26;9.98;;;3.92;;
73693;SDS011;61997;53.974;11.670;2023-03-04T14:39:58;10.85;;;3.70;;
73693;SDS011;61997;53.974;11.670;2023-03-04T14:42:24;10.77;;;5.07;;
73693;SDS011;61997;53.974;11.670;2023-03-04T14:45:00;10.63;;;4.03;;
73693;SDS011;61997;53.974;11.670;2023-03-04T14:47:34;12.00;;;4.70;;
73693;SDS011;61997;53.974;11.670;2023-03-04T14:50:15;10.57;;;4.43;;
73693;SDS011;61997;53.974;11.670;2023-03-04T14:52:43;9.50;;;4.72;;
73693;SDS011;61997;53.974;11.670;2023-03-04T14:57:38;11.00;;;4.43;;
73693;SDS011;61997;53.974;11.670;2023-03-04T15:02:49;7.15;;;3.75;;
73693;SDS011;61997;53.974;11.670;2023-03-04T15:05:32;7.47;;;3.78;;
73693;SDS011;61997;53.974;11.670;2023-03-04T15:07:59;8.18;;;3.85;;
73693;SDS011;61997;53.974;11.670;2023-03-04T15:10:28;7.95;;;4.20;;
73693;SDS011;61997;53.974;11.670;2023-03-04T15:12:56;8.73;;;4.20;;
73693;SDS011;61997;53.974;11.670;2023-03-04T15:15:41;9.10;;;4.03;;
73693;SDS011;61997;53.974;11.670;2023-03-04T15:18:24;8.43;;;3.55;;
73693;SDS011;61997;53.974;11.670;2023-03-04T15:21:01;8.50;;;4.20;;
73693;SDS011;61997;53.974;11.670;2023-03-04T15:23:29;7.72;;;3.58;;
73693;SDS011;61997;53.974;11.670;2023-03-04T15:25:57;8.45;;;3.97;;
73693;SDS011;61997;53.974;11.670;2023-03-04T15:28:24;10.23;;;4.28;;
73693;SDS011;61997;53.974;11.670;2023-03-04T15:30:50;8.05;;;4.35;;
73693;SDS011;61997;53.974;11.670;2023-03-04T15:33:18;6.32;;;3.83;;
73693;SDS011;61997;53.974;11.670;2023-03-04T15:35:47;11.25;;;4.93;;
73693;SDS011;61997;53.974;11.670;2023-03-04T15:38:17;8.35;;;4.40;;
73693;SDS011;61997;53.974;11.670;2023-03-04T15:40:43;10.40;;;4.93;;
73693;SDS011;61997;53.974;11.670;2023-03-04T15:43:13;13.73;;;4.75;;
73693;SDS011;61997;53.974;11.670;2023-03-04T15:45:40;11.15;;;5.18;;
73693;SDS011;61997;53.974;11.670;2023-03-04T15:48:06;9.93;;;5.05;;
73693;SDS011;61997;53.974;11.670;2023-03-04T15:50:34;12.50;;;5.30;;
73693;SDS011;61997;53.974;11.670;2023-03-04T15:53:02;10.60;;;4.68;;
73693;SDS011;61997;53.974;11.670;2023-03-04T15:55:29;10.73;;;5.07;;
73693;SDS011;61997;53.974;11.670;2023-03-04T15:57:56;14.18;;;5.55;;
73693;SDS011;61997;53.974;11.670;2023-03-04T16:00:23;11.63;;;5.00;;
73693;SDS011;61997;53.974;11.670;2023-03-04T16:02:48;9.25;;;4.88;;
73693;SDS011;61997;53.974;11.670;2023-03-04T16:05:14;9.43;;;5.85;;
73693;SDS011;61997;53.974;11.670;2023-03-04T16:07:40;9.20;;;4.63;;
73693;SDS011;61997;53.974;11.670;2023-03-04T16:10:13;11.00;;;5.60;;
73693;SDS011;61997;53.974;11.670;2023-03-04T16:12:51;12.30;;;5.60;;
73693;SDS011;61997;53.974;11.670;2023-03-04T16:15:20;10.55;;;5.78;;
73693;SDS011;61997;53.974;11.670;2023-03-04T16:17:47;8.55;;;4.88;;
73693;SDS011;61997;53.974;11.670;2023-03-04T16:20:13;11.95;;;6.03;;
73693;SDS011;61997;53.974;11.670;2023-03-04T16:22:43;10.93;;;5.60;;
73693;SDS011;61997;53.974;11.670;2023-03-04T16:25:13;14.23;;;6.35;;
73693;SDS011;61997;53.974;11.670;2023-03-04T16:27:39;12.52;;;5.93;;
73693;SDS011;61997;53.974;11.670;2023-03-04T16:30:10;11.00;;;5.63;;
73693;SDS011;61997;53.974;11.670;2023-03-04T16:32:38;11.25;;;6.22;;
73693;SDS011;61997;53.974;11.670;2023-03-04T16:35:03;11.70;;;6.28;;
73693;SDS011;61997;53.974;11.670;2023-03-04T16:37:29;17.52;;;7.15;;
73693;SDS011;61997;53.974;11.670;2023-03-04T16:39:54;14.45;;;7.18;;